Time;durP1;ratioP1;P1;durP2;ratioP2;P2;SDS_P1;SDS_P2;PMS_P1;PMS_P2;Temp;Humidity;BMP_temperature;BMP_pressure;BME280_temperature;BME280_humidity;BME280_pressure;Samples;Min_cycle;Max_cycle;Signal;HPM_P1;HPM_P2
2022/07/13 00:01:15;;;;;;;2.53;1.98;;;25.50;99.90;;;;;;4059110;29;20735;-75
2022/07/13 00:03:17;;;;;;;2.13;1.92;;;25.50;99.90;;;;;;4066453;29;20216;-76
2022/07/13 00:05:20;;;;;;;2.53;2.33;;;25.50;99.90;;;;;;4066393;29;20240;-75
2022/07/13 00:07:22;;;;;;;3.20;2.17;;;25.50;99.90;;;;;;4064039;29;20225;-76
2022/07/13 00:09:24;;;;;;;2.63;2.15;;;25.50;99.90;;;;;;4065077;29;20213;-76
2022/07/13 00:11:27;;;;;;;2.63;2.38;;;25.50;99.90;;;;;;4066525;29;20216;-76
2022/07/13 00:13:29;;;;;;;2.92;2.10;;;25.50;99.90;;;;;;4067318;29;20221;-76
2022/07/13 00:15:32;;;;;;;2.25;2.05;;;25.50;99.90;;;;;;4069083;29;20209;-76
2022/07/13 00:17:36;;;;;;;2.40;2.10;;;25.50;99.90;;;;;;4062353;29;20256;-76
2022/07/13 00:19:38;;;;;;;2.17;1.90;;;25.50;99.90;;;;;;4066290;29;20216;-76
2022/07/13 00:21:41;;;;;;;3.05;2.10;;;25.50;99.90;;;;;;4066194;29;20272;-75
2022/07/13 00:23:43;;;;;;;2.47;2.28;;;25.50;99.90;;;;;;4066131;29;20602;-76
2022/07/13 00:25:45;;;;;;;2.20;2.00;;;25.50;99.90;;;;;;4063592;29;20307;-75
2022/07/13 00:27:48;;;;;;;2.35;1.90;;;25.50;99.90;;;;;;4066513;29;20201;-75
2022/07/13 00:29:50;;;;;;;2.17;1.98;;;25.50;99.90;;;;;;4065646;29;20224;-76
2022/07/13 00:31:52;;;;;;;2.17;1.98;;;25.50;99.90;;;;;;4066156;29;20220;-75
2022/07/13 00:33:56;;;;;;;2.30;1.90;;;25.50;99.90;;;;;;4061763;29;20229;-75
2022/07/13 00:35:59;;;;;;;2.65;2.28;;;25.50;99.90;;;;;;4063216;29;20265;-75
2022/07/13 00:38:01;;;;;;;2.55;1.98;;;25.50;99.90;;;;;;4065671;29;20267;-75
2022/07/13 00:40:04;;;;;;;2.42;2.22;;;25.50;99.90;;;;;;4065994;29;20248;-75
2022/07/13 00:42:06;;;;;;;2.20;2.00;;;25.40;99.90;;;;;;4063367;29;20217;-75
2022/07/13 00:44:09;;;;;;;2.50;1.98;;;25.50;99.90;;;;;;4066016;29;20280;-75
2022/07/13 00:46:13;;;;;;;2.47;2.20;;;25.40;99.90;;;;;;4065750;29;20240;-75
2022/07/13 00:48:18;;;;;;;2.10;1.90;;;25.50;99.90;;;;;;4065925;29;20225;-75
2022/07/13 00:50:22;;;;;;;3.28;2.20;;;25.40;99.90;;;;;;4065036;29;20358;-75
2022/07/13 00:52:24;;;;;;;2.25;1.90;;;25.40;99.90;;;;;;4065471;29;20291;-76
2022/07/13 00:54:30;;;;;;;2.50;2.30;;;25.50;99.90;;;;;;4062654;29;20276;-76
2022/07/13 00:56:33;;;;;;;3.15;2.30;;;25.40;99.90;;;;;;4065710;29;20538;-75
2022/07/13 00:58:35;;;;;;;2.85;2.40;;;25.50;99.90;;;;;;4065595;29;20669;-75
2022/07/13 01:00:38;;;;;;;2.35;2.15;;;25.40;99.90;;;;;;4065397;29;20267;-75
2022/07/13 01:02:41;;;;;;;2.80;2.13;;;25.40;99.90;;;;;;4066029;29;20695;-75
2022/07/13 01:04:43;;;;;;;2.15;1.95;;;25.40;99.90;;;;;;4065745;29;20276;-75
2022/07/13 01:06:47;;;;;;;2.70;2.50;;;25.40;99.90;;;;;;4065386;29;20291;-75
2022/07/13 01:08:49;;;;;;;2.50;2.30;;;25.40;99.90;;;;;;4057196;29;20216;-75
2022/07/13 01:10:52;;;;;;;2.90;1.95;;;25.40;99.90;;;;;;4065682;29;20320;-75
2022/07/13 01:12:55;;;;;;;3.05;2.45;;;25.40;99.90;;;;;;4065472;29;20264;-75
2022/07/13 01:14:58;;;;;;;2.10;1.90;;;25.40;99.90;;;;;;4066784;29;20221;-75
2022/07/13 01:17:01;;;;;;;2.30;2.10;;;25.40;99.90;;;;;;4060967;29;20220;-75
2022/07/13 01:19:05;;;;;;;2.20;2.00;;;25.40;99.90;;;;;;4065003;29;20263;-75
2022/07/13 01:21:07;;;;;;;2.40;2.15;;;25.40;99.90;;;;;;4065382;29;20216;-75
2022/07/13 01:23:12;;;;;;;3.05;2.28;;;25.40;99.90;;;;;;4065296;29;20224;-75
2022/07/13 01:25:15;;;;;;;2.53;2.15;;;25.40;99.90;;;;;;4061399;29;20216;-76
2022/07/13 01:27:19;;;;;;;2.08;1.88;;;25.40;99.90;;;;;;4057366;29;20276;-76
2022/07/13 01:29:21;;;;;;;2.30;2.10;;;25.40;99.90;;;;;;4065480;29;20621;-76
2022/07/13 01:31:33;;;;;;;2.35;2.05;;;25.40;99.90;;;;;;4065772;29;20217;-76
2022/07/13 01:33:36;;;;;;;2.30;2.10;;;25.40;99.90;;;;;;4064801;29;20569;-75
2022/07/13 01:35:38;;;;;;;2.30;2.10;;;25.40;99.90;;;;;;4065464;29;20217;-76
2022/07/13 01:37:41;;;;;;;2.90;2.38;;;25.40;99.90;;;;;;4065785;29;20216;-76
2022/07/13 01:39:45;;;;;;;2.25;2.05;;;25.40;99.90;;;;;;4065645;29;20220;-76
2022/07/13 01:41:47;;;;;;;2.90;2.22;;;25.30;99.90;;;;;;4064851;29;20220;-76
2022/07/13 01:43:50;;;;;;;2.83;2.13;;;25.40;99.90;;;;;;4065521;29;20224;-75
2022/07/13 01:45:52;;;;;;;2.92;2.35;;;25.40;99.90;;;;;;4065364;29;20280;-76
2022/07/13 01:47:56;;;;;;;2.13;1.92;;;25.30;99.90;;;;;;4065372;29;20267;-76
2022/07/13 01:49:58;;;;;;;2.38;2.17;;;25.30;99.90;;;;;;4066496;29;20280;-75
2022/07/13 01:52:01;;;;;;;2.58;2.13;;;25.40;99.90;;;;;;4064618;29;20280;-76
2022/07/13 01:54:03;;;;;;;2.30;2.10;;;25.30;99.90;;;;;;4068199;29;20272;-76
2022/07/13 01:56:08;;;;;;;2.33;2.00;;;25.30;99.90;;;;;;4067831;29;20224;-76
2022/07/13 01:58:10;;;;;;;3.05;2.40;;;25.30;99.90;;;;;;4066732;29;20228;-76
2022/07/13 02:00:15;;;;;;;2.47;2.28;;;25.30;99.90;;;;;;4065520;29;20216;-76
2022/07/13 02:02:18;;;;;;;2.33;2.05;;;25.30;99.90;;;;;;4066956;29;20252;-76
2022/07/13 02:04:20;;;;;;;2.88;2.17;;;25.30;99.90;;;;;;4066886;29;20228;-75
2022/07/13 02:06:23;;;;;;;2.38;1.92;;;25.30;99.90;;;;;;4065207;29;20257;-75
2022/07/13 02:08:25;;;;;;;2.72;2.28;;;25.30;99.90;;;;;;4067152;29;20678;-75
2022/07/13 02:10:35;;;;;;;1.98;1.88;;;25.30;99.90;;;;;;4066910;29;20280;-75
2022/07/13 02:12:39;;;;;;;2.63;1.92;;;25.30;99.90;;;;;;4066484;29;20638;-75
2022/07/13 02:14:41;;;;;;;2.70;2.20;;;25.30;99.90;;;;;;4067910;29;20752;-75
2022/07/13 02:16:43;;;;;;;2.20;2.00;;;25.30;99.90;;;;;;4064848;29;20268;-75
2022/07/13 02:18:46;;;;;;;2.22;2.03;;;25.30;99.90;;;;;;4066856;29;20217;-75
2022/07/13 02:20:48;;;;;;;2.13;1.95;;;25.30;99.90;;;;;;4066700;29;20621;-76
2022/07/13 02:22:50;;;;;;;2.17;1.98;;;25.30;99.90;;;;;;4065907;29;20220;-76
2022/07/13 02:24:53;;;;;;;2.35;2.15;;;25.30;99.90;;;;;;4065103;29;20228;-76
2022/07/13 02:26:55;;;;;;;1.98;1.88;;;25.30;99.90;;;;;;4066790;29;20235;-76
2022/07/13 02:28:58;;;;;;;2.10;1.90;;;25.30;99.90;;;;;;4065970;29;20220;-76
2022/07/13 02:31:01;;;;;;;2.92;2.35;;;25.30;99.90;;;;;;4066823;29;20216;-76
2022/07/13 02:33:03;;;;;;;2.88;1.90;;;25.30;99.90;;;;;;4066158;29;20225;-76
2022/07/13 02:35:06;;;;;;;2.28;1.90;;;25.30;99.90;;;;;;4066656;29;20217;-76
2022/07/13 02:37:11;;;;;;;1.77;1.67;;;25.30;99.90;;;;;;4066575;29;20220;-75
2022/07/13 02:39:13;;;;;;;2.03;1.83;;;25.30;99.90;;;;;;4066618;29;20228;-76
2022/07/13 02:41:16;;;;;;;2.40;1.92;;;25.30;99.90;;;;;;4064691;29;20276;-76
2022/07/13 02:43:18;;;;;;;2.20;2.00;;;25.30;99.90;;;;;;4064851;29;20883;-76
2022/07/13 02:45:22;;;;;;;2.17;1.98;;;25.30;99.90;;;;;;4065898;29;20268;-76
2022/07/13 02:47:24;;;;;;;3.00;2.45;;;25.30;99.90;;;;;;4065535;29;20355;-75
2022/07/13 02:49:26;;;;;;;2.38;2.10;;;25.30;99.90;;;;;;4064343;29;20603;-76
2022/07/13 02:51:29;;;;;;;2.58;2.10;;;25.30;99.90;;;;;;4066094;29;20221;-75
2022/07/13 02:53:31;;;;;;;2.30;1.92;;;25.30;99.90;;;;;;4066295;29;20273;-76
2022/07/13 02:55:34;;;;;;;2.80;2.35;;;25.30;99.90;;;;;;4066203;29;20685;-75
2022/07/13 02:57:36;;;;;;;2.60;2.40;;;25.30;99.90;;;;;;4065194;29;20272;-75
2022/07/13 02:59:38;;;;;;;2.65;2.33;;;25.30;99.90;;;;;;4066078;29;20217;-75
2022/07/13 03:01:42;;;;;;;2.92;2.22;;;25.30;99.90;;;;;;4066297;29;20295;-75
2022/07/13 03:03:44;;;;;;;2.50;1.88;;;25.30;99.90;;;;;;4066401;29;20276;-75
2022/07/13 03:05:47;;;;;;;2.42;2.10;;;25.30;99.90;;;;;;4066137;29;20232;-75
2022/07/13 03:07:49;;;;;;;2.78;2.50;;;25.30;99.90;;;;;;4062994;29;20280;-75
2022/07/13 03:09:52;;;;;;;2.25;1.98;;;25.30;99.90;;;;;;4066082;29;20225;-75
2022/07/13 03:11:54;;;;;;;3.17;2.15;;;25.30;99.90;;;;;;4066179;29;20276;-75
2022/07/13 03:13:56;;;;;;;2.60;2.00;;;25.30;99.90;;;;;;4066908;29;20241;-75
2022/07/13 03:15:58;;;;;;;2.50;2.20;;;25.30;99.90;;;;;;4064566;29;20221;-75
2022/07/13 03:18:03;;;;;;;2.65;2.45;;;25.20;99.90;;;;;;4065706;29;20208;-75
2022/07/13 03:20:06;;;;;;;2.53;2.30;;;25.30;99.90;;;;;;4065499;29;20221;-75
2022/07/13 03:22:09;;;;;;;1.90;1.75;;;25.30;99.90;;;;;;4065769;29;20622;-75
2022/07/13 03:24:11;;;;;;;2.20;2.00;;;25.30;99.90;;;;;;4065308;29;20220;-75
2022/07/13 03:26:13;;;;;;;3.33;2.30;;;25.30;99.90;;;;;;4065912;29;20280;-75
2022/07/13 03:28:15;;;;;;;2.22;2.03;;;25.30;99.90;;;;;;4065949;29;20247;-75
2022/07/13 03:30:18;;;;;;;2.67;1.95;;;25.30;99.90;;;;;;4065653;29;20556;-75
2022/07/13 03:32:20;;;;;;;2.20;2.00;;;25.30;99.90;;;;;;4063995;29;20288;-75
2022/07/13 03:34:24;;;;;;;2.38;2.17;;;25.30;99.90;;;;;;4065732;29;20232;-75
2022/07/13 03:36:26;;;;;;;2.40;2.20;;;25.30;99.90;;;;;;4065826;29;20709;-75
2022/07/13 03:38:28;;;;;;;2.53;2.17;;;25.20;99.90;;;;;;4065273;29;20228;-75
2022/07/13 03:40:30;;;;;;;2.33;2.00;;;25.20;99.90;;;;;;4064387;29;20268;-75
2022/07/13 03:42:34;;;;;;;2.13;1.90;;;25.20;99.90;;;;;;4065771;29;20221;-75
2022/07/13 03:44:36;;;;;;;2.25;1.92;;;25.30;99.90;;;;;;4065728;29;20224;-75
2022/07/13 03:46:39;;;;;;;2.10;1.85;;;25.30;99.90;;;;;;4065217;29;20276;-75
2022/07/13 03:48:41;;;;;;;2.38;2.00;;;25.20;99.90;;;;;;4063920;29;20220;-75
2022/07/13 03:50:45;;;;;;;2.45;1.90;;;25.20;99.90;;;;;;4065297;29;20740;-75
2022/07/13 03:52:47;;;;;;;2.20;1.80;;;25.20;99.90;;;;;;4065459;29;20286;-75
2022/07/13 03:54:49;;;;;;;3.47;2.20;;;25.20;99.90;;;;;;4065647;29;20302;-75
2022/07/13 03:56:51;;;;;;;2.28;2.08;;;25.20;99.90;;;;;;4065053;29;20217;-75
2022/07/13 03:58:54;;;;;;;2.15;1.88;;;25.20;99.90;;;;;;4064838;29;20275;-75
2022/07/13 04:00:56;;;;;;;2.22;1.90;;;25.20;99.90;;;;;;4065461;29;20225;-75
2022/07/13 04:02:58;;;;;;;2.00;1.80;;;25.30;99.90;;;;;;4065332;29;20217;-75
2022/07/13 04:05:01;;;;;;;2.70;1.85;;;25.20;99.90;;;;;;4065438;29;20216;-75
2022/07/13 04:07:05;;;;;;;2.47;2.05;;;25.20;99.90;;;;;;4063837;29;20244;-75
2022/07/13 04:09:07;;;;;;;2.53;2.30;;;25.20;99.90;;;;;;4065448;29;20216;-76
2022/07/13 04:11:09;;;;;;;3.53;1.95;;;25.20;99.90;;;;;;4064365;29;20325;-75
2022/07/13 04:13:12;;;;;;;2.70;1.75;;;25.20;99.90;;;;;;4065091;29;20272;-75
2022/07/13 04:15:14;;;;;;;2.55;2.00;;;25.20;99.90;;;;;;4064356;29;20221;-75
2022/07/13 04:17:17;;;;;;;2.17;1.90;;;25.20;99.90;;;;;;4064511;29;20216;-75
2022/07/13 04:19:19;;;;;;;2.15;1.95;;;25.20;99.90;;;;;;4064962;29;20622;-75
2022/07/13 04:21:21;;;;;;;3.33;2.35;;;25.20;99.90;;;;;;4065233;29;20718;-75
2022/07/13 04:23:25;;;;;;;3.13;2.08;;;25.20;99.90;;;;;;4062219;29;20217;-75
2022/07/13 04:25:27;;;;;;;2.10;1.90;;;25.20;99.90;;;;;;4064840;29;20705;-76
2022/07/13 04:27:30;;;;;;;2.38;2.00;;;25.20;99.90;;;;;;4064657;29;20276;-76
2022/07/13 04:29:32;;;;;;;2.10;1.90;;;25.20;99.90;;;;;;4065079;29;20721;-76
2022/07/13 04:31:35;;;;;;;3.60;2.20;;;25.20;99.90;;;;;;4064532;29;20220;-76
2022/07/13 04:33:37;;;;;;;2.63;2.22;;;25.20;99.90;;;;;;4064556;29;20220;-76
2022/07/13 04:35:39;;;;;;;2.13;2.00;;;25.20;99.90;;;;;;4064943;29;20624;-75
2022/07/13 04:37:42;;;;;;;2.22;2.03;;;25.20;99.90;;;;;;4064855;29;20331;-76
2022/07/13 04:39:45;;;;;;;2.60;2.38;;;25.20;99.90;;;;;;4062194;29;20679;-75
2022/07/13 04:41:47;;;;;;;1.90;1.80;;;25.20;99.90;;;;;;4064015;29;20339;-75
2022/07/13 04:43:50;;;;;;;2.85;2.10;;;25.20;99.90;;;;;;4064971;29;20216;-75
2022/07/13 04:45:53;;;;;;;2.10;1.90;;;25.20;99.90;;;;;;4064591;29;20264;-75
2022/07/13 04:47:55;;;;;;;4.72;2.15;;;25.20;99.90;;;;;;4059684;29;20291;-75
2022/07/13 04:49:58;;;;;;;2.08;1.77;;;25.10;99.90;;;;;;4063600;29;20229;-75
2022/07/13 04:52:00;;;;;;;2.17;1.90;;;25.20;99.90;;;;;;4064546;29;20271;-75
2022/07/13 04:54:02;;;;;;;2.20;2.00;;;25.20;99.90;;;;;;4064441;29;20260;-75
2022/07/13 04:56:06;;;;;;;2.10;1.90;;;25.10;99.90;;;;;;4064213;29;20267;-75
2022/07/13 04:58:09;;;;;;;1.98;1.80;;;25.20;99.90;;;;;;4064318;29;20263;-75
2022/07/13 05:00:12;;;;;;;2.88;2.20;;;25.20;99.90;;;;;;4064365;29;20264;-75
2022/07/13 05:02:14;;;;;;;2.78;2.20;;;25.20;99.90;;;;;;4064262;29;20224;-75
2022/07/13 05:04:17;;;;;;;2.30;2.10;;;25.20;99.90;;;;;;4064030;29;20671;-75
2022/07/13 05:06:19;;;;;;;2.15;1.95;;;25.20;99.90;;;;;;4063185;29;20648;-75
2022/07/13 05:08:21;;;;;;;2.42;2.00;;;25.10;99.90;;;;;;4064454;29;20244;-76
2022/07/13 05:10:24;;;;;;;2.42;1.95;;;25.10;99.90;;;;;;4064213;29;20267;-76
2022/07/13 05:12:27;;;;;;;2.45;2.15;;;25.20;99.90;;;;;;4063930;29;20219;-76
2022/07/13 05:14:30;;;;;;;2.35;1.98;;;25.20;99.90;;;;;;4062438;29;20665;-75
2022/07/13 05:16:32;;;;;;;2.42;2.22;;;25.10;99.90;;;;;;4064415;29;20268;-75
2022/07/13 05:18:35;;;;;;;2.10;1.90;;;25.20;99.90;;;;;;4064389;29;20276;-75
2022/07/13 05:20:37;;;;;;;2.20;2.00;;;25.20;99.90;;;;;;4064549;29;20284;-75
2022/07/13 05:22:39;;;;;;;2.20;2.00;;;25.20;99.90;;;;;;4061829;29;21041;-75
2022/07/13 05:24:43;;;;;;;2.38;2.17;;;25.20;99.90;;;;;;4063459;29;20216;-75
2022/07/13 05:26:46;;;;;;;2.17;1.88;;;25.20;99.90;;;;;;4064526;29;20217;-75
2022/07/13 05:28:49;;;;;;;2.40;2.20;;;25.10;99.90;;;;;;4063980;29;20291;-75
2022/07/13 05:30:51;;;;;;;2.65;2.10;;;25.10;99.90;;;;;;4063256;29;20275;-75
2022/07/13 05:32:54;;;;;;;2.13;1.92;;;25.20;99.90;;;;;;4064428;29;20220;-75
2022/07/13 05:34:56;;;;;;;2.35;1.98;;;25.20;99.90;;;;;;4064312;29;20221;-75
2022/07/13 05:36:59;;;;;;;2.30;2.10;;;25.20;99.90;;;;;;4063535;29;20271;-75
2022/07/13 05:39:01;;;;;;;2.55;2.10;;;25.10;99.90;;;;;;4063924;29;20277;-75
2022/07/13 05:41:03;;;;;;;2.15;1.90;;;25.10;99.90;;;;;;4061715;29;20308;-76
2022/07/13 05:43:07;;;;;;;2.28;2.05;;;25.20;99.90;;;;;;4063970;29;20220;-76
2022/07/13 05:45:11;;;;;;;2.00;1.80;;;25.20;99.90;;;;;;4064046;29;20281;-75
2022/07/13 05:47:13;;;;;;;2.63;2.00;;;25.10;99.90;;;;;;4063504;29;20220;-74
2022/07/13 05:49:16;;;;;;;2.65;2.15;;;25.20;99.90;;;;;;4063884;29;20236;-75
2022/07/13 05:51:18;;;;;;;2.10;1.85;;;25.20;99.90;;;;;;4064254;29;20229;-75
2022/07/13 05:53:20;;;;;;;2.17;1.98;;;25.20;99.90;;;;;;4063935;29;20272;-75
2022/07/13 05:55:23;;;;;;;4.10;1.92;;;25.20;99.90;;;;;;4064181;29;20272;-75
2022/07/13 05:57:25;;;;;;;2.35;2.15;;;25.20;99.90;;;;;;4063630;29;20225;-75
2022/07/13 05:59:27;;;;;;;2.13;1.95;;;25.10;99.90;;;;;;4063905;29;20324;-75
2022/07/13 06:01:31;;;;;;;2.25;1.80;;;25.20;99.90;;;;;;4063694;29;20354;-76
2022/07/13 06:03:33;;;;;;;2.00;1.80;;;25.20;99.90;;;;;;4064478;29;20220;-76
2022/07/13 06:05:36;;;;;;;2.83;2.25;;;25.20;99.90;;;;;;4062222;29;20272;-76
2022/07/13 06:07:38;;;;;;;2.00;1.83;;;25.10;99.90;;;;;;4063869;29;20216;-76
2022/07/13 06:09:41;;;;;;;2.30;2.10;;;25.20;99.90;;;;;;4063829;29;20685;-76
2022/07/13 06:11:43;;;;;;;1.95;1.85;;;25.20;99.90;;;;;;4064394;29;20633;-76
2022/07/13 06:13:46;;;;;;;2.13;1.92;;;25.20;99.90;;;;;;4062842;29;20269;-76
2022/07/13 06:15:48;;;;;;;3.45;2.13;;;25.20;99.90;;;;;;4063756;29;20284;-76
2022/07/13 06:17:52;;;;;;;2.50;2.15;;;25.20;99.90;;;;;;4063094;29;20280;-76
2022/07/13 06:19:54;;;;;;;2.20;2.00;;;25.20;99.90;;;;;;4063777;29;20221;-76
2022/07/13 06:21:57;;;;;;;1.70;1.60;;;25.10;99.90;;;;;;4061827;29;20260;-76
2022/07/13 06:23:59;;;;;;;3.08;2.38;;;25.10;99.90;;;;;;4063682;29;20216;-76
2022/07/13 06:26:01;;;;;;;2.55;2.05;;;25.20;99.90;;;;;;4064108;29;20221;-76
2022/07/13 06:28:04;;;;;;;2.20;2.00;;;25.20;99.90;;;;;;4063548;29;20217;-76
2022/07/13 06:30:08;;;;;;;1.95;1.77;;;25.20;99.90;;;;;;4063526;29;20232;-75
2022/07/13 06:32:10;;;;;;;2.28;1.98;;;25.20;99.90;;;;;;4061254;29;20342;-75
2022/07/13 06:34:14;;;;;;;2.30;2.10;;;25.20;99.90;;;;;;4064063;29;20725;-75
2022/07/13 06:36:16;;;;;;;2.17;1.90;;;25.20;99.90;;;;;;4065105;29;20220;-75
2022/07/13 06:38:19;;;;;;;2.50;1.92;;;25.20;99.90;;;;;;4064830;29;20233;-75
2022/07/13 06:40:21;;;;;;;1.75;1.65;;;25.20;99.90;;;;;;4065013;29;20287;-76
2022/07/13 06:42:23;;;;;;;1.70;1.60;;;25.20;99.90;;;;;;4066643;29;20281;-76
2022/07/13 06:44:26;;;;;;;2.00;1.80;;;25.20;99.90;;;;;;4065461;29;20212;-76
2022/07/13 06:46:28;;;;;;;2.10;1.90;;;25.20;99.90;;;;;;4065569;29;20272;-76
2022/07/13 06:48:30;;;;;;;2.15;1.95;;;25.20;99.90;;;;;;4065892;29;20221;-76
2022/07/13 06:50:34;;;;;;;2.40;1.90;;;25.20;99.90;;;;;;4066323;29;20221;-76
2022/07/13 06:52:37;;;;;;;2.45;1.98;;;25.20;99.90;;;;;;4065038;29;20228;-76
2022/07/13 06:54:39;;;;;;;2.75;2.00;;;25.20;99.90;;;;;;4066351;29;20323;-75
2022/07/13 06:56:41;;;;;;;9.73;2.55;;;25.20;99.90;;;;;;4061720;29;20224;-75
2022/07/13 06:58:44;;;;;;;4.05;1.75;;;25.10;99.90;;;;;;4064097;29;20312;-75
2022/07/13 07:00:46;;;;;;;5.70;2.58;;;25.00;99.90;;;;;;4063028;29;20268;-76
2022/07/13 07:02:48;;;;;;;6.68;2.22;;;24.90;99.90;;;;;;4057353;29;20259;-71
2022/07/13 07:04:51;;;;;;;6.80;2.55;;;24.90;99.90;;;;;;4060577;29;20217;-75
2022/07/13 07:06:54;;;;;;;7.57;2.65;;;24.90;99.90;;;;;;4062164;29;20287;-75
2022/07/13 07:08:58;;;;;;;4.95;2.30;;;25.00;99.90;;;;;;4066954;29;20288;-75
2022/07/13 07:11:00;;;;;;;7.35;2.33;;;25.00;99.90;;;;;;4064693;29;20327;-76
2022/07/13 07:13:03;;;;;;;5.13;2.35;;;24.90;99.90;;;;;;4062172;29;20662;-76
2022/07/13 07:15:06;;;;;;;20.58;3.67;;;24.90;99.90;;;;;;4067551;29;20629;-75
2022/07/13 07:17:09;;;;;;;5.35;2.15;;;24.90;99.90;;;;;;4066442;29;20224;-75
2022/07/13 07:19:12;;;;;;;10.85;2.70;;;24.90;99.90;;;;;;4064080;29;20275;-75
2022/07/13 07:21:14;;;;;;;9.30;2.65;;;24.90;99.90;;;;;;4065192;29;20220;-75
2022/07/13 07:23:18;;;;;;;9.25;2.55;;;24.90;99.90;;;;;;4061685;29;20216;-75
2022/07/13 07:25:20;;;;;;;6.15;2.63;;;24.90;99.90;;;;;;4061482;29;20272;-75
2022/07/13 07:27:23;;;;;;;10.55;2.83;;;24.90;99.90;;;;;;4058439;29;20248;-80
2022/07/13 07:29:25;;;;;;;10.02;2.53;;;24.90;99.90;;;;;;4060340;29;20248;-74
2022/07/13 07:31:28;;;;;;;5.10;2.40;;;24.90;99.90;;;;;;4062881;29;20224;-71
2022/07/13 07:33:31;;;;;;;8.00;2.75;;;24.90;99.90;;;;;;4063113;29;20295;-71
2022/07/13 07:35:33;;;;;;;4.43;2.47;;;24.90;99.90;;;;;;4062706;29;20221;-75
2022/07/13 07:37:38;;;;;;;5.10;2.35;;;24.90;99.90;;;;;;4066334;29;20248;-76
2022/07/13 07:39:42;;;;;;;3.15;2.22;;;25.00;99.90;;;;;;4059593;29;20220;-71
2022/07/13 07:41:45;;;;;;;6.82;3.03;;;25.00;99.90;;;;;;4065649;29;20232;-75
2022/07/13 07:43:48;;;;;;;8.07;2.50;;;25.00;99.90;;;;;;4061134;29;20217;-71
2022/07/13 07:45:50;;;;;;;3.92;2.47;;;25.10;99.90;;;;;;4063699;29;20272;-72
2022/07/13 07:47:53;;;;;;;4.95;2.60;;;25.10;99.90;;;;;;4054542;29;20272;-71
2022/07/13 07:49:55;;;;;;;9.13;2.60;;;25.20;99.90;;;;;;4055832;29;20291;-76
2022/07/13 07:51:58;;;;;;;5.55;2.78;;;25.10;99.90;;;;;;4060682;29;20216;-76
2022/07/13 07:54:01;;;;;;;9.13;2.70;;;25.10;99.90;;;;;;4061480;29;20217;-75
2022/07/13 07:56:05;;;;;;;6.55;2.67;;;25.10;99.90;;;;;;4059039;29;20272;-76
2022/07/13 07:58:08;;;;;;;5.90;2.45;;;25.10;99.90;;;;;;4062937;29;20661;-78
2022/07/13 08:00:11;;;;;;;6.55;2.90;;;25.10;99.90;;;;;;4063343;29;20748;-77
2022/07/13 08:02:14;;;;;;;7.43;2.80;;;25.20;99.90;;;;;;4061671;29;20640;-76
2022/07/13 08:04:16;;;;;;;7.43;2.42;;;25.20;99.90;;;;;;4056064;29;20277;-76
2022/07/13 08:06:19;;;;;;;7.28;2.60;;;25.10;99.90;;;;;;4058956;29;20292;-76
2022/07/13 08:08:21;;;;;;;9.35;2.55;;;25.10;99.90;;;;;;4057293;29;20220;-77
2022/07/13 08:10:23;;;;;;;8.23;3.03;;;25.00;99.90;;;;;;4063581;29;20249;-76
2022/07/13 08:12:27;;;;;;;14.93;3.50;;;25.20;99.90;;;;;;4061726;29;20226;-77
2022/07/13 08:14:30;;;;;;;10.40;3.20;;;25.20;99.90;;;;;;4063233;29;20983;-76
2022/07/13 08:16:33;;;;;;;8.25;2.50;;;25.10;99.90;;;;;;4065527;29;20216;-76
2022/07/13 08:18:35;;;;;;;8.52;3.03;;;25.10;99.90;;;;;;4064527;29;20733;-77
2022/07/13 08:20:37;;;;;;;5.85;2.88;;;25.10;99.90;;;;;;4064450;29;20733;-76
2022/07/13 08:22:40;;;;;;;10.98;3.15;;;25.20;99.90;;;;;;4060853;29;20281;-75
2022/07/13 08:24:42;;;;;;;5.63;2.50;;;25.10;99.90;;;;;;4059127;29;20633;-75
2022/07/13 08:26:44;;;;;;;4.68;2.90;;;25.10;99.90;;;;;;4042763;29;20639;-72
2022/07/13 08:28:49;;;;;;;6.40;2.75;;;25.10;99.90;;;;;;4062761;29;20221;-71
2022/07/13 08:30:51;;;;;;;12.48;2.67;;;25.10;99.90;;;;;;4059711;29;20248;-73
2022/07/13 08:32:53;;;;;;;10.57;3.17;;;25.20;99.90;;;;;;4062227;29;20220;-72
2022/07/13 08:39:42;;;;;;;7.35;3.05;;;25.40;99.90;;;;;;4059232;29;20650;-72
2022/07/13 08:41:44;;;;;;;7.53;3.05;;;25.30;99.90;;;;;;4064380;29;20220;-73
2022/07/13 08:43:48;;;;;;;6.57;2.88;;;25.30;99.90;;;;;;4054983;29;20217;-72
2022/07/13 08:45:50;;;;;;;5.38;2.70;;;25.30;99.90;;;;;;4062590;29;20216;-72
2022/07/13 08:47:53;;;;;;;6.45;3.25;;;25.30;99.90;;;;;;4062894;29;20652;-72
2022/07/13 08:49:58;;;;;;;14.05;3.92;;;25.30;99.90;;;;;;4060272;29;20236;-75
2022/07/13 08:52:00;;;;;;;9.63;3.10;;;25.40;99.90;;;;;;4061090;29;20281;-77
2022/07/13 08:54:05;;;;;;;6.70;2.50;;;25.40;99.90;;;;;;4058964;29;20224;-77
2022/07/13 08:56:08;;;;;;;16.45;3.33;;;25.40;99.90;;;;;;4058102;29;20654;-75
2022/07/13 08:58:11;;;;;;;12.25;3.30;;;25.30;99.90;;;;;;4057516;29;20272;-75
2022/07/13 09:00:17;;;;;;;5.82;2.60;;;25.30;99.90;;;;;;4057301;29;20208;-76
2022/07/13 09:02:19;;;;;;;8.35;3.42;;;25.30;99.90;;;;;;4054359;29;20287;-76
2022/07/13 09:04:22;;;;;;;7.53;3.40;;;25.50;99.90;;;;;;4055055;29;20610;-74
2022/07/13 09:06:44;;;;;;;9.70;3.13;;;25.50;99.90;;;;;;4054608;29;20296;-78
2022/07/13 09:08:47;;;;;;;5.70;2.90;;;25.50;99.90;;;;;;4056324;29;20627;-76
2022/07/13 09:10:54;;;;;;;10.80;3.25;;;25.50;99.90;;;;;;4061376;29;20300;-76
2022/07/13 09:12:56;;;;;;;10.98;2.78;;;25.60;99.90;;;;;;4057826;29;20629;-77
2022/07/13 09:14:59;;;;;;;7.13;3.08;;;25.60;99.90;;;;;;4060832;29;20729;-76
2022/07/13 09:17:03;;;;;;;8.00;2.90;;;25.60;99.90;;;;;;4059935;29;20272;-77
2022/07/13 09:19:05;;;;;;;10.48;3.17;;;25.60;99.90;;;;;;4063528;29;20708;-77
2022/07/13 09:21:08;;;;;;;16.50;2.88;;;25.60;99.90;;;;;;4058223;29;20213;-72
2022/07/13 09:23:10;;;;;;;7.90;2.80;;;25.60;99.90;;;;;;4063487;29;20224;-76
2022/07/13 09:25:24;;;;;;;8.98;2.72;;;25.70;99.90;;;;;;4060353;29;20229;-77
2022/07/13 09:27:26;;;;;;;8.60;3.35;;;25.70;99.90;;;;;;4054096;29;20217;-76
2022/07/13 09:29:28;;;;;;;5.47;2.70;;;25.60;99.90;;;;;;4054313;29;20224;-76
2022/07/13 09:31:31;;;;;;;3.75;2.45;;;25.50;99.90;;;;;;4057519;29;20236;-75
2022/07/13 09:33:36;;;;;;;7.50;2.75;;;25.60;99.90;;;;;;4058948;29;20221;-76
2022/07/13 09:35:46;;;;;;;4.93;2.88;;;25.60;99.90;;;;;;4051836;29;20299;-76
2022/07/13 09:37:48;;;;;;;8.98;3.20;;;25.60;99.90;;;;;;4054964;29;20212;-76
2022/07/13 09:40:07;;;;;;;7.75;2.90;;;25.70;99.90;;;;;;4053197;29;20216;-72
2022/07/13 09:42:09;;;;;;;5.38;2.80;;;25.70;99.90;;;;;;4061745;29;20300;-70
2022/07/13 09:46:31;;;;;;;6.53;2.70;;;25.70;99.90;;;;;;4048909;29;20200;-71
2022/07/13 09:48:37;;;;;;;17.88;3.50;;;25.70;99.90;;;;;;4056722;29;20275;-72
2022/07/13 09:50:40;;;;;;;5.40;2.53;;;25.70;99.90;;;;;;4045879;29;20244;-71
2022/07/13 09:52:43;;;;;;;4.03;2.38;;;25.70;99.90;;;;;;4052355;29;20303;-71
2022/07/13 09:54:49;;;;;;;5.03;2.58;;;25.70;99.90;;;;;;4050933;29;20217;-71
2022/07/13 09:56:57;;;;;;;4.70;2.67;;;25.80;99.90;;;;;;4057167;29;20632;-72
2022/07/13 09:59:04;;;;;;;5.05;2.67;;;25.80;99.90;;;;;;4052027;29;20272;-72
2022/07/13 10:01:07;;;;;;;8.48;2.83;;;25.80;99.90;;;;;;4058115;29;20240;-71
2022/07/13 10:03:09;;;;;;;4.40;2.50;;;25.90;99.90;;;;;;4062971;29;20292;-71
2022/07/13 10:05:14;;;;;;;4.95;2.42;;;25.90;99.90;;;;;;4062089;29;20224;-71
2022/07/13 10:07:17;;;;;;;6.03;2.60;;;25.90;99.90;;;;;;4061492;29;20244;-75
2022/07/13 10:09:21;;;;;;;6.93;2.70;;;25.90;99.90;;;;;;4062845;29;20217;-75
2022/07/13 10:11:24;;;;;;;5.18;2.60;;;25.90;99.90;;;;;;4060040;29;20299;-72
2022/07/13 10:13:27;;;;;;;5.28;2.40;;;25.90;99.90;;;;;;4062551;29;20634;-71
2022/07/13 10:15:29;;;;;;;4.65;2.38;;;25.90;99.90;;;;;;4063147;29;20220;-72
2022/07/13 10:17:32;;;;;;;3.33;2.15;;;25.90;99.90;;;;;;4064183;29;20224;-71
2022/07/13 10:19:41;;;;;;;5.57;2.10;;;25.90;99.90;;;;;;4062748;29;20213;-71
2022/07/13 10:21:56;;;;;;;4.97;2.38;;;25.90;99.90;;;;;;4061062;29;20209;-71
2022/07/13 10:24:00;;;;;;;5.70;2.45;;;25.90;99.90;;;;;;4064137;29;20256;-72
2022/07/13 10:26:03;;;;;;;5.32;2.20;;;25.90;99.90;;;;;;4061357;29;20221;-75
2022/07/13 10:28:06;;;;;;;4.88;2.17;;;25.90;99.90;;;;;;4065631;29;20225;-75
2022/07/13 10:30:10;;;;;;;5.13;2.50;;;25.90;99.90;;;;;;4061248;29;20249;-75
2022/07/13 10:32:16;;;;;;;6.00;2.70;;;25.80;99.90;;;;;;4063212;29;20300;-72
2022/07/13 10:34:19;;;;;;;3.13;1.98;;;25.90;99.90;;;;;;4064130;29;20646;-72
2022/07/13 10:36:53;;;;;;;6.95;2.28;;;25.80;99.90;;;;;;4062284;29;21068;-71
2022/07/13 10:39:10;;;;;;;2.63;2.28;;;25.90;99.90;;;;;;4063516;29;20224;-72
2022/07/13 10:41:20;;;;;;;3.17;2.05;;;25.90;99.90;;;;;;4062608;29;20327;-74
2022/07/13 10:43:23;;;;;;;4.03;2.28;;;25.90;99.90;;;;;;4062946;29;20267;-74
2022/07/13 10:45:40;;;;;;;3.60;1.92;;;25.90;99.90;;;;;;4061456;29;20658;-71
2022/07/13 10:47:45;;;;;;;4.28;2.00;;;25.90;99.90;;;;;;4063924;29;20281;-71